sensor_id;sensor_type;location;lat;lon;timestamp;P1;durP1;ratioP1;P2;durP2;ratioP2
56425;SDS011;42330;43.620;3.856;2022-10-16T00:01:14;6.82;;;3.22;;
56425;SDS011;42330;43.620;3.856;2022-10-16T00:03:42;7.03;;;2.88;;
56425;SDS011;42330;43.620;3.856;2022-10-16T00:06:09;8.18;;;3.50;;
56425;SDS011;42330;43.620;3.856;2022-10-16T00:08:35;7.32;;;3.20;;
56425;SDS011;42330;43.620;3.856;2022-10-16T00:11:02;9.80;;;3.45;;
56425;SDS011;42330;43.620;3.856;2022-10-16T00:13:34;7.63;;;3.30;;
56425;SDS011;42330;43.620;3.856;2022-10-16T00:16:01;7.03;;;2.75;;
56425;SDS011;42330;43.620;3.856;2022-10-16T00:18:27;6.65;;;3.38;;
56425;SDS011;42330;43.620;3.856;2022-10-16T00:20:53;5.10;;;3.30;;
56425;SDS011;42330;43.620;3.856;2022-10-16T00:23:19;7.07;;;3.20;;
56425;SDS011;42330;43.620;3.856;2022-10-16T00:25:53;7.22;;;3.35;;
56425;SDS011;42330;43.620;3.856;2022-10-16T00:28:20;8.15;;;3.35;;
56425;SDS011;42330;43.620;3.856;2022-10-16T00:30:46;5.68;;;3.00;;
56425;SDS011;42330;43.620;3.856;2022-10-16T00:33:12;8.18;;;3.30;;
56425;SDS011;42330;43.620;3.856;2022-10-16T00:35:37;6.72;;;2.92;;
56425;SDS011;42330;43.620;3.856;2022-10-16T00:38:03;6.00;;;3.10;;
56425;SDS011;42330;43.620;3.856;2022-10-16T00:40:28;7.13;;;3.30;;
56425;SDS011;42330;43.620;3.856;2022-10-16T00:42:54;6.07;;;3.38;;
56425;SDS011;42330;43.620;3.856;2022-10-16T00:45:20;7.20;;;3.20;;
56425;SDS011;42330;43.620;3.856;2022-10-16T00:47:46;8.30;;;3.17;;
56425;SDS011;42330;43.620;3.856;2022-10-16T00:50:22;5.57;;;3.15;;
56425;SDS011;42330;43.620;3.856;2022-10-16T00:52:57;6.30;;;3.35;;
56425;SDS011;42330;43.620;3.856;2022-10-16T00:55:24;14.73;;;3.63;;
56425;SDS011;42330;43.620;3.856;2022-10-16T00:57:51;6.20;;;3.40;;
56425;SDS011;42330;43.620;3.856;2022-10-16T01:00:19;8.00;;;3.90;;
56425;SDS011;42330;43.620;3.856;2022-10-16T01:02:54;7.50;;;3.70;;
56425;SDS011;42330;43.620;3.856;2022-10-16T01:10:51;7.95;;;3.83;;
56425;SDS011;42330;43.620;3.856;2022-10-16T01:13:56;8.50;;;3.57;;
56425;SDS011;42330;43.620;3.856;2022-10-16T01:16:29;6.22;;;3.50;;
56425;SDS011;42330;43.620;3.856;2022-10-16T01:21:46;7.40;;;3.60;;
56425;SDS011;42330;43.620;3.856;2022-10-16T01:27:14;9.15;;;4.20;;
56425;SDS011;42330;43.620;3.856;2022-10-16T01:40:08;10.27;;;3.97;;
56425;SDS011;42330;43.620;3.856;2022-10-16T01:42:41;5.90;;;3.95;;
56425;SDS011;42330;43.620;3.856;2022-10-16T01:45:11;8.05;;;4.18;;
56425;SDS011;42330;43.620;3.856;2022-10-16T01:47:39;8.32;;;3.97;;
56425;SDS011;42330;43.620;3.856;2022-10-16T01:50:06;9.10;;;4.22;;
56425;SDS011;42330;43.620;3.856;2022-10-16T01:52:37;8.38;;;3.88;;
56425;SDS011;42330;43.620;3.856;2022-10-16T01:55:07;8.35;;;3.97;;
56425;SDS011;42330;43.620;3.856;2022-10-16T01:57:36;9.68;;;4.28;;
56425;SDS011;42330;43.620;3.856;2022-10-16T02:00:09;10.20;;;4.53;;
56425;SDS011;42330;43.620;3.856;2022-10-16T02:02:37;8.02;;;4.18;;
56425;SDS011;42330;43.620;3.856;2022-10-16T02:07:38;8.38;;;4.90;;
56425;SDS011;42330;43.620;3.856;2022-10-16T02:10:04;10.85;;;4.50;;
56425;SDS011;42330;43.620;3.856;2022-10-16T02:12:33;7.88;;;4.22;;
56425;SDS011;42330;43.620;3.856;2022-10-16T02:15:01;6.82;;;4.45;;
56425;SDS011;42330;43.620;3.856;2022-10-16T02:17:27;9.63;;;4.35;;
56425;SDS011;42330;43.620;3.856;2022-10-16T02:19:53;6.80;;;4.25;;
56425;SDS011;42330;43.620;3.856;2022-10-16T02:22:22;9.90;;;4.88;;
56425;SDS011;42330;43.620;3.856;2022-10-16T02:30:14;9.82;;;4.78;;
56425;SDS011;42330;43.620;3.856;2022-10-16T02:32:44;11.00;;;5.38;;
56425;SDS011;42330;43.620;3.856;2022-10-16T02:35:13;9.55;;;5.18;;
56425;SDS011;42330;43.620;3.856;2022-10-16T02:37:44;11.63;;;5.20;;
56425;SDS011;42330;43.620;3.856;2022-10-16T02:40:11;9.52;;;5.35;;
56425;SDS011;42330;43.620;3.856;2022-10-16T02:42:38;8.45;;;5.20;;
56425;SDS011;42330;43.620;3.856;2022-10-16T02:45:06;8.77;;;4.45;;
56425;SDS011;42330;43.620;3.856;2022-10-16T02:47:33;9.80;;;4.95;;
56425;SDS011;42330;43.620;3.856;2022-10-16T02:49:59;10.32;;;4.57;;
56425;SDS011;42330;43.620;3.856;2022-10-16T02:52:24;9.90;;;4.57;;
56425;SDS011;42330;43.620;3.856;2022-10-16T02:54:50;9.30;;;5.25;;
56425;SDS011;42330;43.620;3.856;2022-10-16T02:57:16;9.68;;;4.72;;
56425;SDS011;42330;43.620;3.856;2022-10-16T02:59:43;14.48;;;5.20;;
56425;SDS011;42330;43.620;3.856;2022-10-16T03:02:09;8.68;;;5.22;;
56425;SDS011;42330;43.620;3.856;2022-10-16T03:04:35;12.70;;;4.85;;
56425;SDS011;42330;43.620;3.856;2022-10-16T03:07:00;11.18;;;4.72;;
56425;SDS011;42330;43.620;3.856;2022-10-16T03:09:26;11.05;;;5.30;;
56425;SDS011;42330;43.620;3.856;2022-10-16T03:11:52;10.73;;;4.82;;
56425;SDS011;42330;43.620;3.856;2022-10-16T03:14:18;9.07;;;5.25;;
56425;SDS011;42330;43.620;3.856;2022-10-16T03:16:43;10.07;;;5.05;;
56425;SDS011;42330;43.620;3.856;2022-10-16T03:19:09;13.65;;;5.25;;
56425;SDS011;42330;43.620;3.856;2022-10-16T03:21:34;11.85;;;5.80;;
56425;SDS011;42330;43.620;3.856;2022-10-16T03:24:00;9.77;;;5.35;;
56425;SDS011;42330;43.620;3.856;2022-10-16T03:26:26;10.00;;;4.85;;
56425;SDS011;42330;43.620;3.856;2022-10-16T03:28:51;12.13;;;5.65;;
56425;SDS011;42330;43.620;3.856;2022-10-16T03:31:17;10.68;;;5.35;;
56425;SDS011;42330;43.620;3.856;2022-10-16T03:33:43;11.13;;;5.22;;
56425;SDS011;42330;43.620;3.856;2022-10-16T03:36:08;12.40;;;5.53;;
56425;SDS011;42330;43.620;3.856;2022-10-16T03:38:34;10.70;;;4.72;;
56425;SDS011;42330;43.620;3.856;2022-10-16T03:41:00;9.85;;;5.45;;
56425;SDS011;42330;43.620;3.856;2022-10-16T03:43:25;7.85;;;4.80;;
56425;SDS011;42330;43.620;3.856;2022-10-16T03:45:51;11.73;;;4.95;;
56425;SDS011;42330;43.620;3.856;2022-10-16T03:48:20;7.00;;;4.60;;
56425;SDS011;42330;43.620;3.856;2022-10-16T03:50:45;13.43;;;5.05;;
56425;SDS011;42330;43.620;3.856;2022-10-16T03:53:13;10.18;;;5.00;;
56425;SDS011;42330;43.620;3.856;2022-10-16T03:55:41;11.45;;;4.85;;
56425;SDS011;42330;43.620;3.856;2022-10-16T03:58:07;9.38;;;4.97;;
56425;SDS011;42330;43.620;3.856;2022-10-16T04:00:33;10.45;;;5.40;;
56425;SDS011;42330;43.620;3.856;2022-10-16T04:02:59;8.23;;;5.40;;
56425;SDS011;42330;43.620;3.856;2022-10-16T04:05:25;12.65;;;5.22;;
56425;SDS011;42330;43.620;3.856;2022-10-16T04:07:51;13.00;;;5.30;;
56425;SDS011;42330;43.620;3.856;2022-10-16T04:10:17;10.18;;;5.03;;
56425;SDS011;42330;43.620;3.856;2022-10-16T04:12:42;10.63;;;5.15;;
56425;SDS011;42330;43.620;3.856;2022-10-16T04:15:08;12.88;;;5.38;;
56425;SDS011;42330;43.620;3.856;2022-10-16T04:17:34;14.95;;;5.18;;
56425;SDS011;42330;43.620;3.856;2022-10-16T04:20:00;16.05;;;5.40;;
56425;SDS011;42330;43.620;3.856;2022-10-16T04:22:26;11.35;;;4.95;;
56425;SDS011;42330;43.620;3.856;2022-10-16T04:24:51;12.02;;;4.90;;
56425;SDS011;42330;43.620;3.856;2022-10-16T04:27:17;11.80;;;4.55;;
56425;SDS011;42330;43.620;3.856;2022-10-16T04:29:43;11.43;;;4.60;;
56425;SDS011;42330;43.620;3.856;2022-10-16T04:32:08;12.60;;;5.28;;
56425;SDS011;42330;43.620;3.856;2022-10-16T04:34:34;15.95;;;5.53;;
56425;SDS011;42330;43.620;3.856;2022-10-16T04:37:00;12.20;;;5.32;;
56425;SDS011;42330;43.620;3.856;2022-10-16T04:39:25;11.50;;;4.85;;
56425;SDS011;42330;43.620;3.856;2022-10-16T04:41:51;10.15;;;4.93;;
56425;SDS011;42330;43.620;3.856;2022-10-16T04:44:17;11.07;;;5.07;;
56425;SDS011;42330;43.620;3.856;2022-10-16T04:46:42;14.45;;;5.32;;
56425;SDS011;42330;43.620;3.856;2022-10-16T04:49:09;10.73;;;5.03;;
56425;SDS011;42330;43.620;3.856;2022-10-16T04:51:35;13.32;;;5.18;;
56425;SDS011;42330;43.620;3.856;2022-10-16T04:54:01;12.77;;;5.22;;
56425;SDS011;42330;43.620;3.856;2022-10-16T04:56:26;14.75;;;5.50;;
56425;SDS011;42330;43.620;3.856;2022-10-16T04:58:52;18.23;;;5.53;;
56425;SDS011;42330;43.620;3.856;2022-10-16T05:01:18;17.42;;;5.47;;
56425;SDS011;42330;43.620;3.856;2022-10-16T05:03:43;14.18;;;5.35;;
56425;SDS011;42330;43.620;3.856;2022-10-16T05:06:09;17.30;;;5.32;;
56425;SDS011;42330;43.620;3.856;2022-10-16T05:08:35;15.73;;;5.22;;
56425;SDS011;42330;43.620;3.856;2022-10-16T05:11:00;14.98;;;5.60;;
56425;SDS011;42330;43.620;3.856;2022-10-16T05:13:27;20.52;;;5.68;;
56425;SDS011;42330;43.620;3.856;2022-10-16T05:15:52;18.52;;;5.38;;
56425;SDS011;42330;43.620;3.856;2022-10-16T05:18:18;16.08;;;5.25;;
56425;SDS011;42330;43.620;3.856;2022-10-16T05:20:44;17.73;;;5.47;;
56425;SDS011;42330;43.620;3.856;2022-10-16T05:23:09;15.07;;;4.97;;
56425;SDS011;42330;43.620;3.856;2022-10-16T05:25:36;14.63;;;4.95;;
56425;SDS011;42330;43.620;3.856;2022-10-16T05:28:02;13.15;;;4.72;;
56425;SDS011;42330;43.620;3.856;2022-10-16T05:30:28;12.68;;;4.93;;
56425;SDS011;42330;43.620;3.856;2022-10-16T05:32:54;16.38;;;5.72;;
56425;SDS011;42330;43.620;3.856;2022-10-16T05:35:20;18.15;;;5.68;;
56425;SDS011;42330;43.620;3.856;2022-10-16T05:37:46;18.05;;;5.72;;
56425;SDS011;42330;43.620;3.856;2022-10-16T05:40:12;16.20;;;5.32;;
56425;SDS011;42330;43.620;3.856;2022-10-16T05:42:38;15.02;;;5.07;;
56425;SDS011;42330;43.620;3.856;2022-10-16T05:45:05;15.23;;;5.18;;
56425;SDS011;42330;43.620;3.856;2022-10-16T05:47:32;17.33;;;5.60;;
56425;SDS011;42330;43.620;3.856;2022-10-16T05:49:57;18.83;;;5.35;;
56425;SDS011;42330;43.620;3.856;2022-10-16T05:52:23;13.30;;;4.88;;
56425;SDS011;42330;43.620;3.856;2022-10-16T05:54:48;15.18;;;5.00;;
56425;SDS011;42330;43.620;3.856;2022-10-16T05:57:14;14.18;;;5.10;;
56425;SDS011;42330;43.620;3.856;2022-10-16T05:59:40;18.10;;;5.20;;
56425;SDS011;42330;43.620;3.856;2022-10-16T06:02:05;11.95;;;4.60;;
56425;SDS011;42330;43.620;3.856;2022-10-16T06:04:33;9.88;;;4.90;;
56425;SDS011;42330;43.620;3.856;2022-10-16T06:06:59;13.00;;;5.03;;
56425;SDS011;42330;43.620;3.856;2022-10-16T06:09:27;9.55;;;4.50;;
56425;SDS011;42330;43.620;3.856;2022-10-16T06:11:53;13.65;;;4.95;;
56425;SDS011;42330;43.620;3.856;2022-10-16T06:14:18;13.25;;;5.38;;
56425;SDS011;42330;43.620;3.856;2022-10-16T06:16:44;11.95;;;5.60;;
56425;SDS011;42330;43.620;3.856;2022-10-16T06:19:10;12.05;;;4.95;;
56425;SDS011;42330;43.620;3.856;2022-10-16T06:21:35;11.25;;;5.32;;
56425;SDS011;42330;43.620;3.856;2022-10-16T06:24:01;8.43;;;4.90;;
56425;SDS011;42330;43.620;3.856;2022-10-16T06:26:28;9.77;;;4.95;;
56425;SDS011;42330;43.620;3.856;2022-10-16T06:28:55;11.40;;;6.00;;
56425;SDS011;42330;43.620;3.856;2022-10-16T06:31:22;10.75;;;5.90;;
56425;SDS011;42330;43.620;3.856;2022-10-16T06:33:52;14.90;;;5.80;;
56425;SDS011;42330;43.620;3.856;2022-10-16T06:36:18;10.65;;;5.28;;
56425;SDS011;42330;43.620;3.856;2022-10-16T06:38:45;11.63;;;5.15;;
56425;SDS011;42330;43.620;3.856;2022-10-16T06:41:15;10.18;;;5.10;;
56425;SDS011;42330;43.620;3.856;2022-10-16T06:43:41;11.95;;;5.32;;
56425;SDS011;42330;43.620;3.856;2022-10-16T06:46:10;15.90;;;5.25;;
56425;SDS011;42330;43.620;3.856;2022-10-16T06:48:37;13.55;;;5.32;;
56425;SDS011;42330;43.620;3.856;2022-10-16T06:51:10;10.75;;;5.30;;
56425;SDS011;42330;43.620;3.856;2022-10-16T06:53:39;11.95;;;5.30;;
56425;SDS011;42330;43.620;3.856;2022-10-16T06:56:13;7.68;;;4.53;;
56425;SDS011;42330;43.620;3.856;2022-10-16T06:58:40;13.95;;;5.57;;
56425;SDS011;42330;43.620;3.856;2022-10-16T07:01:07;11.15;;;5.15;;
56425;SDS011;42330;43.620;3.856;2022-10-16T07:03:33;12.45;;;5.35;;
56425;SDS011;42330;43.620;3.856;2022-10-16T07:06:01;8.82;;;5.13;;
56425;SDS011;42330;43.620;3.856;2022-10-16T07:08:32;9.40;;;5.10;;
56425;SDS011;42330;43.620;3.856;2022-10-16T07:11:01;10.77;;;5.35;;
56425;SDS011;42330;43.620;3.856;2022-10-16T07:13:29;12.23;;;5.40;;
56425;SDS011;42330;43.620;3.856;2022-10-16T07:15:54;10.95;;;5.40;;
56425;SDS011;42330;43.620;3.856;2022-10-16T07:18:20;11.77;;;5.28;;
56425;SDS011;42330;43.620;3.856;2022-10-16T07:20:46;12.43;;;5.47;;
56425;SDS011;42330;43.620;3.856;2022-10-16T07:23:12;9.88;;;4.90;;
56425;SDS011;42330;43.620;3.856;2022-10-16T07:25:38;12.25;;;4.57;;
56425;SDS011;42330;43.620;3.856;2022-10-16T07:28:03;12.63;;;4.60;;
56425;SDS011;42330;43.620;3.856;2022-10-16T07:30:29;9.77;;;4.30;;
56425;SDS011;42330;43.620;3.856;2022-10-16T07:32:55;11.93;;;4.30;;
56425;SDS011;42330;43.620;3.856;2022-10-16T07:35:20;13.25;;;4.85;;
56425;SDS011;42330;43.620;3.856;2022-10-16T07:37:46;11.93;;;4.55;;
56425;SDS011;42330;43.620;3.856;2022-10-16T07:40:12;9.32;;;4.20;;
56425;SDS011;42330;43.620;3.856;2022-10-16T07:42:38;9.40;;;4.07;;
56425;SDS011;42330;43.620;3.856;2022-10-16T07:45:04;12.57;;;4.30;;
56425;SDS011;42330;43.620;3.856;2022-10-16T07:47:30;11.57;;;3.90;;
56425;SDS011;42330;43.620;3.856;2022-10-16T07:49:55;7.63;;;3.78;;
56425;SDS011;42330;43.620;3.856;2022-10-16T07:52:21;9.20;;;4.10;;
56425;SDS011;42330;43.620;3.856;2022-10-16T07:54:46;10.48;;;4.20;;
56425;SDS011;42330;43.620;3.856;2022-10-16T07:57:12;9.70;;;3.92;;
56425;SDS011;42330;43.620;3.856;2022-10-16T07:59:44;10.98;;;4.32;;
56425;SDS011;42330;43.620;3.856;2022-10-16T08:02:10;9.90;;;4.18;;
56425;SDS011;42330;43.620;3.856;2022-10-16T08:04:36;14.00;;;3.88;;
56425;SDS011;42330;43.620;3.856;2022-10-16T08:07:02;12.15;;;3.90;;
56425;SDS011;42330;43.620;3.856;2022-10-16T08:09:27;10.20;;;4.00;;
56425;SDS011;42330;43.620;3.856;2022-10-16T08:11:53;12.15;;;3.83;;
56425;SDS011;42330;43.620;3.856;2022-10-16T08:14:19;9.77;;;3.65;;
56425;SDS011;42330;43.620;3.856;2022-10-16T08:16:44;68.10;;;5.22;;
56425;SDS011;42330;43.620;3.856;2022-10-16T08:19:10;8.50;;;3.63;;
56425;SDS011;42330;43.620;3.856;2022-10-16T08:21:36;8.27;;;3.97;;
56425;SDS011;42330;43.620;3.856;2022-10-16T08:24:01;9.05;;;3.83;;
56425;SDS011;42330;43.620;3.856;2022-10-16T08:26:27;11.43;;;3.90;;
56425;SDS011;42330;43.620;3.856;2022-10-16T08:28:53;8.10;;;4.00;;
56425;SDS011;42330;43.620;3.856;2022-10-16T08:31:19;8.48;;;3.85;;
56425;SDS011;42330;43.620;3.856;2022-10-16T08:33:46;12.93;;;4.00;;
56425;SDS011;42330;43.620;3.856;2022-10-16T08:36:12;8.73;;;3.75;;
56425;SDS011;42330;43.620;3.856;2022-10-16T08:38:38;9.10;;;3.85;;
56425;SDS011;42330;43.620;3.856;2022-10-16T08:49:35;9.60;;;3.70;;
56425;SDS011;42330;43.620;3.856;2022-10-16T08:52:02;6.30;;;3.33;;
56425;SDS011;42330;43.620;3.856;2022-10-16T08:54:32;8.00;;;3.42;;
56425;SDS011;42330;43.620;3.856;2022-10-16T08:57:11;8.75;;;3.80;;
56425;SDS011;42330;43.620;3.856;2022-10-16T08:59:46;9.32;;;3.80;;
56425;SDS011;42330;43.620;3.856;2022-10-16T09:02:31;9.93;;;3.70;;
56425;SDS011;42330;43.620;3.856;2022-10-16T09:07:47;11.63;;;3.65;;
56425;SDS011;42330;43.620;3.856;2022-10-16T09:13:23;12.80;;;3.70;;
56425;SDS011;42330;43.620;3.856;2022-10-16T09:21:21;11.20;;;4.15;;
56425;SDS011;42330;43.620;3.856;2022-10-16T09:23:50;8.88;;;3.60;;
56425;SDS011;42330;43.620;3.856;2022-10-16T09:26:16;11.63;;;3.78;;
56425;SDS011;42330;43.620;3.856;2022-10-16T09:28:44;11.15;;;4.10;;
56425;SDS011;42330;43.620;3.856;2022-10-16T09:31:15;10.02;;;3.55;;
56425;SDS011;42330;43.620;3.856;2022-10-16T09:33:43;11.75;;;3.80;;
56425;SDS011;42330;43.620;3.856;2022-10-16T09:36:12;14.20;;;3.88;;
56425;SDS011;42330;43.620;3.856;2022-10-16T09:38:39;11.23;;;3.83;;
56425;SDS011;42330;43.620;3.856;2022-10-16T09:41:25;13.23;;;4.22;;
56425;SDS011;42330;43.620;3.856;2022-10-16T09:43:53;13.38;;;3.92;;
56425;SDS011;42330;43.620;3.856;2022-10-16T09:48:50;8.43;;;4.03;;
56425;SDS011;42330;43.620;3.856;2022-10-16T09:53:57;10.27;;;3.85;;
56425;SDS011;42330;43.620;3.856;2022-10-16T09:56:26;12.48;;;3.75;;
56425;SDS011;42330;43.620;3.856;2022-10-16T09:59:22;11.23;;;3.58;;
56425;SDS011;42330;43.620;3.856;2022-10-16T10:01:53;10.23;;;3.88;;
56425;SDS011;42330;43.620;3.856;2022-10-16T10:04:21;11.98;;;3.90;;
56425;SDS011;42330;43.620;3.856;2022-10-16T10:06:49;13.40;;;4.10;;
56425;SDS011;42330;43.620;3.856;2022-10-16T10:11:48;14.00;;;4.15;;
56425;SDS011;42330;43.620;3.856;2022-10-16T10:14:26;14.23;;;4.63;;
56425;SDS011;42330;43.620;3.856;2022-10-16T10:17:28;15.00;;;4.80;;
56425;SDS011;42330;43.620;3.856;2022-10-16T10:22:22;12.93;;;4.30;;
56425;SDS011;42330;43.620;3.856;2022-10-16T10:24:55;13.48;;;4.68;;
56425;SDS011;42330;43.620;3.856;2022-10-16T10:28:07;12.20;;;4.60;;
56425;SDS011;42330;43.620;3.856;2022-10-16T10:40:50;113.30;;;6.30;;
56425;SDS011;42330;43.620;3.856;2022-10-16T10:45:52;15.15;;;4.00;;
56425;SDS011;42330;43.620;3.856;2022-10-16T10:48:33;14.82;;;4.03;;
56425;SDS011;42330;43.620;3.856;2022-10-16T10:51:10;16.88;;;4.07;;
56425;SDS011;42330;43.620;3.856;2022-10-16T10:56:45;14.63;;;4.22;;
56425;SDS011;42330;43.620;3.856;2022-10-16T10:59:36;11.57;;;4.35;;
56425;SDS011;42330;43.620;3.856;2022-10-16T11:07:16;12.75;;;3.72;;
56425;SDS011;42330;43.620;3.856;2022-10-16T11:10:13;15.70;;;4.60;;
56425;SDS011;42330;43.620;3.856;2022-10-16T11:12:46;15.35;;;4.38;;
56425;SDS011;42330;43.620;3.856;2022-10-16T11:15:19;16.85;;;4.63;;
56425;SDS011;42330;43.620;3.856;2022-10-16T11:18:03;11.18;;;4.20;;
56425;SDS011;42330;43.620;3.856;2022-10-16T11:20:57;13.00;;;4.20;;
56425;SDS011;42330;43.620;3.856;2022-10-16T11:23:29;12.07;;;4.10;;
56425;SDS011;42330;43.620;3.856;2022-10-16T11:26:04;13.10;;;3.92;;
56425;SDS011;42330;43.620;3.856;2022-10-16T11:28:39;15.32;;;4.10;;
56425;SDS011;42330;43.620;3.856;2022-10-16T11:31:13;15.82;;;4.18;;
56425;SDS011;42330;43.620;3.856;2022-10-16T11:33:42;13.48;;;4.13;;
56425;SDS011;42330;43.620;3.856;2022-10-16T11:36:25;17.65;;;4.40;;
56425;SDS011;42330;43.620;3.856;2022-10-16T11:47:36;15.50;;;4.30;;
56425;SDS011;42330;43.620;3.856;2022-10-16T11:49:44;9.82;;;3.90;;
56425;SDS011;42330;43.620;3.856;2022-10-16T11:52:33;12.55;;;3.83;;
56425;SDS011;42330;43.620;3.856;2022-10-16T11:55:23;13.98;;;4.13;;
56425;SDS011;42330;43.620;3.856;2022-10-16T11:58:40;19.00;;;4.18;;
56425;SDS011;42330;43.620;3.856;2022-10-16T12:08:44;16.92;;;4.13;;
56425;SDS011;42330;43.620;3.856;2022-10-16T12:11:22;11.55;;;3.78;;
56425;SDS011;42330;43.620;3.856;2022-10-16T12:13:48;18.10;;;3.95;;
56425;SDS011;42330;43.620;3.856;2022-10-16T12:18:40;14.63;;;3.50;;
56425;SDS011;42330;43.620;3.856;2022-10-16T12:21:07;13.98;;;3.75;;
56425;SDS011;42330;43.620;3.856;2022-10-16T12:23:38;13.00;;;3.55;;
56425;SDS011;42330;43.620;3.856;2022-10-16T12:26:12;15.05;;;3.58;;
56425;SDS011;42330;43.620;3.856;2022-10-16T12:28:38;9.65;;;3.35;;
56425;SDS011;42330;43.620;3.856;2022-10-16T12:31:06;16.38;;;3.42;;
56425;SDS011;42330;43.620;3.856;2022-10-16T12:36:03;12.25;;;3.60;;
56425;SDS011;42330;43.620;3.856;2022-10-16T12:38:44;9.73;;;3.60;;
56425;SDS011;42330;43.620;3.856;2022-10-16T12:41:24;10.68;;;3.33;;
56425;SDS011;42330;43.620;3.856;2022-10-16T12:43:58;10.00;;;3.00;;
56425;SDS011;42330;43.620;3.856;2022-10-16T12:49:19;11.15;;;3.35;;
56425;SDS011;42330;43.620;3.856;2022-10-16T12:51:49;13.75;;;3.58;;
56425;SDS011;42330;43.620;3.856;2022-10-16T12:54:27;11.38;;;3.55;;
56425;SDS011;42330;43.620;3.856;2022-10-16T13:00:04;14.43;;;3.40;;
56425;SDS011;42330;43.620;3.856;2022-10-16T13:18:36;11.90;;;3.15;;
56425;SDS011;42330;43.620;3.856;2022-10-16T13:29:32;14.05;;;3.40;;
56425;SDS011;42330;43.620;3.856;2022-10-16T13:31:59;12.23;;;3.00;;
56425;SDS011;42330;43.620;3.856;2022-10-16T13:34:26;13.10;;;3.38;;
56425;SDS011;42330;43.620;3.856;2022-10-16T13:36:53;9.88;;;3.10;;
56425;SDS011;42330;43.620;3.856;2022-10-16T13:39:26;14.70;;;3.47;;
56425;SDS011;42330;43.620;3.856;2022-10-16T13:44:25;14.80;;;2.97;;
56425;SDS011;42330;43.620;3.856;2022-10-16T13:46:58;13.70;;;3.13;;
56425;SDS011;42330;43.620;3.856;2022-10-16T13:49:25;11.75;;;3.08;;
56425;SDS011;42330;43.620;3.856;2022-10-16T13:51:55;11.80;;;3.30;;
56425;SDS011;42330;43.620;3.856;2022-10-16T13:54:22;14.65;;;3.38;;
56425;SDS011;42330;43.620;3.856;2022-10-16T13:56:48;13.07;;;3.38;;
56425;SDS011;42330;43.620;3.856;2022-10-16T13:59:25;12.35;;;3.50;;
56425;SDS011;42330;43.620;3.856;2022-10-16T14:01:53;8.57;;;2.90;;
56425;SDS011;42330;43.620;3.856;2022-10-16T14:04:22;17.08;;;3.20;;
56425;SDS011;42330;43.620;3.856;2022-10-16T14:06:49;11.57;;;3.00;;
56425;SDS011;42330;43.620;3.856;2022-10-16T14:09:23;10.88;;;3.20;;
56425;SDS011;42330;43.620;3.856;2022-10-16T14:12:00;12.25;;;3.20;;
56425;SDS011;42330;43.620;3.856;2022-10-16T14:14:42;12.13;;;3.42;;
56425;SDS011;42330;43.620;3.856;2022-10-16T14:17:14;16.05;;;3.60;;
56425;SDS011;42330;43.620;3.856;2022-10-16T14:19:52;7.15;;;2.60;;
56425;SDS011;42330;43.620;3.856;2022-10-16T14:22:36;11.80;;;2.88;;
56425;SDS011;42330;43.620;3.856;2022-10-16T14:28:13;10.20;;;2.95;;
56425;SDS011;42330;43.620;3.856;2022-10-16T14:33:25;9.13;;;2.83;;
56425;SDS011;42330;43.620;3.856;2022-10-16T14:36:06;11.02;;;3.00;;
56425;SDS011;42330;43.620;3.856;2022-10-16T14:38:40;11.85;;;3.22;;
56425;SDS011;42330;43.620;3.856;2022-10-16T14:41:07;11.93;;;2.90;;
56425;SDS011;42330;43.620;3.856;2022-10-16T14:43:38;13.93;;;3.10;;
56425;SDS011;42330;43.620;3.856;2022-10-16T14:46:15;12.63;;;2.97;;
56425;SDS011;42330;43.620;3.856;2022-10-16T14:48:43;14.82;;;3.22;;
56425;SDS011;42330;43.620;3.856;2022-10-16T14:51:16;11.15;;;2.72;;
56425;SDS011;42330;43.620;3.856;2022-10-16T14:53:43;13.82;;;3.50;;
56425;SDS011;42330;43.620;3.856;2022-10-16T14:56:14;11.77;;;3.53;;
56425;SDS011;42330;43.620;3.856;2022-10-16T14:58:46;13.85;;;3.40;;
56425;SDS011;42330;43.620;3.856;2022-10-16T15:01:12;13.55;;;3.13;;
56425;SDS011;42330;43.620;3.856;2022-10-16T15:03:38;12.32;;;3.13;;
56425;SDS011;42330;43.620;3.856;2022-10-16T15:06:04;11.90;;;3.10;;
56425;SDS011;42330;43.620;3.856;2022-10-16T15:08:39;9.50;;;3.03;;
56425;SDS011;42330;43.620;3.856;2022-10-16T15:11:05;15.88;;;3.35;;
56425;SDS011;42330;43.620;3.856;2022-10-16T15:13:40;14.18;;;3.08;;
56425;SDS011;42330;43.620;3.856;2022-10-16T15:16:09;13.55;;;3.55;;
56425;SDS011;42330;43.620;3.856;2022-10-16T15:18:36;16.15;;;3.42;;
56425;SDS011;42330;43.620;3.856;2022-10-16T15:21:02;14.07;;;3.15;;
56425;SDS011;42330;43.620;3.856;2022-10-16T15:23:28;13.45;;;3.30;;
56425;SDS011;42330;43.620;3.856;2022-10-16T15:25:54;15.00;;;3.80;;
56425;SDS011;42330;43.620;3.856;2022-10-16T15:28:21;13.43;;;3.60;;
56425;SDS011;42330;43.620;3.856;2022-10-16T15:30:55;14.40;;;3.63;;
56425;SDS011;42330;43.620;3.856;2022-10-16T15:33:22;11.32;;;3.00;;
56425;SDS011;42330;43.620;3.856;2022-10-16T15:35:52;12.40;;;3.20;;
56425;SDS011;42330;43.620;3.856;2022-10-16T15:38:19;15.07;;;3.45;;
56425;SDS011;42330;43.620;3.856;2022-10-16T15:40:46;18.17;;;3.80;;
56425;SDS011;42330;43.620;3.856;2022-10-16T15:43:13;17.27;;;3.70;;
56425;SDS011;42330;43.620;3.856;2022-10-16T15:45:39;16.77;;;3.90;;
56425;SDS011;42330;43.620;3.856;2022-10-16T15:48:05;14.85;;;3.50;;
56425;SDS011;42330;43.620;3.856;2022-10-16T15:50:31;16.60;;;3.47;;
56425;SDS011;42330;43.620;3.856;2022-10-16T15:52:57;18.45;;;3.20;;
56425;SDS011;42330;43.620;3.856;2022-10-16T15:55:23;13.70;;;3.08;;
56425;SDS011;42330;43.620;3.856;2022-10-16T15:57:49;16.23;;;3.70;;
56425;SDS011;42330;43.620;3.856;2022-10-16T16:00:16;14.50;;;3.40;;
56425;SDS011;42330;43.620;3.856;2022-10-16T16:02:49;11.35;;;3.03;;
56425;SDS011;42330;43.620;3.856;2022-10-16T16:05:16;16.63;;;3.42;;
56425;SDS011;42330;43.620;3.856;2022-10-16T16:07:42;17.83;;;3.80;;
56425;SDS011;42330;43.620;3.856;2022-10-16T16:10:09;17.98;;;4.10;;
56425;SDS011;42330;43.620;3.856;2022-10-16T16:12:36;14.18;;;4.07;;
56425;SDS011;42330;43.620;3.856;2022-10-16T16:15:03;19.13;;;3.80;;
56425;SDS011;42330;43.620;3.856;2022-10-16T16:17:30;20.85;;;4.13;;
56425;SDS011;42330;43.620;3.856;2022-10-16T16:19:56;14.05;;;4.00;;
56425;SDS011;42330;43.620;3.856;2022-10-16T16:22:22;17.00;;;3.65;;
56425;SDS011;42330;43.620;3.856;2022-10-16T16:24:47;14.80;;;3.28;;
56425;SDS011;42330;43.620;3.856;2022-10-16T16:27:13;13.40;;;3.60;;
56425;SDS011;42330;43.620;3.856;2022-10-16T16:29:39;20.02;;;3.75;;
56425;SDS011;42330;43.620;3.856;2022-10-16T16:32:05;17.55;;;3.50;;
56425;SDS011;42330;43.620;3.856;2022-10-16T16:34:30;14.70;;;3.67;;
56425;SDS011;42330;43.620;3.856;2022-10-16T16:36:56;14.80;;;3.35;;
56425;SDS011;42330;43.620;3.856;2022-10-16T16:39:22;15.55;;;3.78;;
56425;SDS011;42330;43.620;3.856;2022-10-16T16:41:48;17.20;;;3.95;;
56425;SDS011;42330;43.620;3.856;2022-10-16T16:44:14;16.60;;;3.85;;
56425;SDS011;42330;43.620;3.856;2022-10-16T16:46:41;11.80;;;3.25;;
56425;SDS011;42330;43.620;3.856;2022-10-16T16:49:09;18.30;;;3.80;;
56425;SDS011;42330;43.620;3.856;2022-10-16T16:51:36;19.30;;;3.65;;
56425;SDS011;42330;43.620;3.856;2022-10-16T16:54:02;18.50;;;3.85;;
56425;SDS011;42330;43.620;3.856;2022-10-16T16:56:28;18.52;;;4.07;;
56425;SDS011;42330;43.620;3.856;2022-10-16T16:58:54;14.00;;;3.40;;
56425;SDS011;42330;43.620;3.856;2022-10-16T17:01:22;18.58;;;4.00;;
56425;SDS011;42330;43.620;3.856;2022-10-16T17:03:50;18.00;;;3.65;;
56425;SDS011;42330;43.620;3.856;2022-10-16T17:06:17;17.00;;;3.80;;
56425;SDS011;42330;43.620;3.856;2022-10-16T17:08:43;25.42;;;4.22;;